Time;durP1;ratioP1;P1;durP2;ratioP2;P2;SDS_P1;SDS_P2;PMS_P1;PMS_P2;Temp;Humidity;BMP_temperature;BMP_pressure;BME280_temperature;BME280_humidity;BME280_pressure;Samples;Min_cycle;Max_cycle;Signal;HPM_P1;HPM_P2
2021/06/13 00:01:35;;;;;;;0.70;0.67;;;13.10;99.90;;;13.16;100.00;-21039.78;5061130;28;20717;-79
2021/06/13 00:04:05;;;;;;;0.70;0.60;;;12.90;99.90;;;12.98;100.00;-21034.97;5054920;28;20440;-79
2021/06/13 00:06:33;;;;;;;0.80;0.70;;;12.80;99.90;;;12.88;100.00;-21032.19;5055244;28;20510;-81
2021/06/13 00:09:01;;;;;;;0.70;0.60;;;12.70;99.90;;;12.86;100.00;-20265.44;5057385;28;20517;-79
2021/06/13 00:11:28;;;;;;;0.80;0.70;;;12.60;99.90;;;12.79;100.00;-19172.56;5056401;28;20438;-78
2021/06/13 00:13:56;;;;;;;0.80;0.70;;;12.50;99.90;;;12.80;100.00;-17688.78;5054930;28;20448;-79
2021/06/13 00:16:24;;;;;;;0.80;0.70;;;12.50;99.90;;;12.85;100.00;-16114.38;5055116;28;20423;-77
2021/06/13 00:18:52;;;;;;;0.70;0.60;;;12.40;99.90;;;12.87;100.00;-14606.63;5055657;28;20432;-77
2021/06/13 00:21:22;;;;;;;0.70;0.60;;;12.40;99.90;;;12.87;100.00;-13294.19;5054804;28;20467;-78
2021/06/13 00:23:50;;;;;;;0.70;0.60;;;12.40;99.90;;;12.91;100.00;-11835.56;5064222;28;21017;-79
2021/06/13 00:26:19;;;;;;;0.70;0.60;;;12.50;99.90;;;12.79;100.00;-10424.88;5075498;28;20530;-78
2021/06/13 00:28:47;;;;;;;0.70;0.70;;;12.40;99.90;;;12.61;100.00;-8685.84;5058139;28;20451;-78
2021/06/13 00:31:15;;;;;;;0.70;0.60;;;12.30;99.90;;;12.51;100.00;-5781.41;5073426;28;20429;-78
2021/06/13 00:33:43;;;;;;;0.70;0.60;;;12.20;99.90;;;12.61;100.00;-2268.50;5037485;28;20456;-78
2021/06/13 00:36:10;;;;;;;0.73;0.60;;;12.20;99.90;;;12.57;100.00;180.84;5053053;28;20432;-78
2021/06/13 00:38:40;;;;;;;0.70;0.60;;;12.20;99.90;;;12.50;100.00;2929.94;5060062;28;20455;-79
2021/06/13 00:41:09;;;;;;;0.80;0.60;;;12.10;99.90;;;12.36;100.00;6074.53;5074126;28;20481;-79
2021/06/13 00:43:37;;;;;;;0.80;0.70;;;12.10;99.90;;;12.40;100.00;9483.38;5071017;28;20481;-79
2021/06/13 00:46:05;;;;;;;0.90;0.90;;;12.00;99.90;;;12.41;100.00;12481.66;5050187;28;20482;-79
2021/06/13 00:48:33;;;;;;;0.70;0.60;;;12.00;99.90;;;12.39;100.00;15047.47;5074436;28;20790;-78
2021/06/13 00:51:00;;;;;;;0.70;0.60;;;12.00;99.90;;;12.25;100.00;18096.19;5057282;28;20435;-78
2021/06/13 00:53:30;;;;;;;0.80;0.70;;;11.90;99.90;;;12.13;100.00;21325.34;5058734;28;21044;-78
2021/06/13 00:56:05;;;;;;;0.70;0.60;;;11.80;99.90;;;12.07;100.00;24409.09;5053620;28;20478;-79
2021/06/13 00:58:32;;;;;;;0.80;0.70;;;11.70;99.90;;;12.12;100.00;27382.88;5055561;28;20860;-79
2021/06/13 01:01:02;;;;;;;0.70;0.60;;;11.70;99.90;;;12.15;100.00;29736.97;5038300;28;20444;-80
2021/06/13 01:03:36;;;;;;;0.70;0.70;;;11.70;99.90;;;12.07;100.00;31337.03;5075074;28;20462;-79
2021/06/13 01:06:06;;;;;;;0.70;0.60;;;11.70;99.90;;;11.95;100.00;32993.09;5074565;28;20808;-79
2021/06/13 01:08:48;;;;;;;0.80;0.70;;;11.60;99.90;;;11.87;100.00;34799.94;5074151;28;20465;-80
2021/06/13 01:11:31;;;;;;;0.70;0.60;;;11.60;99.90;;;11.95;100.00;36556.72;5072202;28;20940;-79
2021/06/13 01:14:08;;;;;;;0.70;0.60;;;11.60;99.90;;;11.89;100.00;37551.41;5073861;28;20402;-78
2021/06/13 01:16:46;;;;;;;0.70;0.70;;;11.50;99.90;;;11.85;100.00;38585.91;5056140;28;20549;-80
2021/06/13 01:19:34;;;;;;;0.70;0.60;;;11.50;99.90;;;11.81;100.00;39255.13;5062381;28;20518;-78
2021/06/13 01:22:15;;;;;;;0.70;0.60;;;11.40;99.90;;;11.77;100.00;39492.47;5056959;28;20470;-78
2021/06/13 01:25:04;;;;;;;0.70;0.60;;;11.40;99.90;;;11.75;100.00;40227.13;5073764;28;20503;-79
2021/06/13 01:28:07;;;;;;;0.73;0.60;;;11.40;99.90;;;11.80;100.00;40594.16;5073738;28;20529;-78
2021/06/13 01:30:38;;;;;;;0.70;0.60;;;11.30;99.90;;;11.80;100.00;40266.56;5070247;28;20503;-78
2021/06/13 01:33:11;;;;;;;0.80;0.60;;;11.40;99.90;;;11.81;100.00;40267.28;5072808;28;20446;-78
2021/06/13 01:35:43;;;;;;;0.70;0.60;;;11.40;99.90;;;11.88;100.00;40599.69;5056595;28;20443;-79
2021/06/13 01:38:16;;;;;;;0.70;0.60;;;11.40;99.90;;;11.80;100.00;39612.22;5070073;28;20458;-79
2021/06/13 01:40:45;;;;;;;0.70;0.60;;;11.40;99.90;;;11.76;100.00;39609.31;5037216;28;20428;-78
2021/06/13 01:43:16;;;;;;;0.70;0.60;;;11.40;99.90;;;11.80;100.00;39568.75;5054542;28;20832;-79
2021/06/13 01:45:50;;;;;;;0.70;0.63;;;11.40;99.90;;;11.76;100.00;39243.88;5066781;28;21012;-79
2021/06/13 01:48:21;;;;;;;0.70;0.60;;;11.40;99.90;;;11.75;100.00;38832.16;5054940;28;20453;-79
2021/06/13 01:50:50;;;;;;;0.70;0.60;;;11.30;99.90;;;11.72;100.00;38515.78;5072233;28;20433;-79
2021/06/13 01:53:20;;;;;;;0.70;0.60;;;11.30;99.90;;;11.74;100.00;38243.84;5068097;28;20515;-78
2021/06/13 01:55:49;;;;;;;0.80;0.63;;;11.30;99.90;;;11.57;100.00;37527.53;5056515;28;20504;-79
2021/06/13 01:58:22;;;;;;;0.70;0.60;;;11.20;99.90;;;11.48;100.00;36730.03;5037091;28;20435;-79
2021/06/13 02:01:20;;;;;;;0.80;0.60;;;11.20;99.90;;;11.48;100.00;35448.72;5056163;28;20939;-79
2021/06/13 02:03:51;;;;;;;0.70;0.60;;;11.10;99.90;;;11.45;100.00;34544.09;5053391;28;20542;-78
2021/06/13 02:06:36;;;;;;;0.70;0.60;;;11.00;99.90;;;11.44;100.00;33992.59;5069086;28;21186;-78
2021/06/13 02:09:06;;;;;;;0.80;0.60;;;11.00;99.90;;;11.47;100.00;33310.78;5051826;28;20475;-77
2021/06/13 02:11:39;;;;;;;0.70;0.60;;;11.00;99.90;;;11.40;100.00;31986.47;5060393;28;20439;-79
2021/06/13 02:14:09;;;;;;;0.70;0.60;;;11.00;99.90;;;11.36;100.00;31061.78;5060816;28;20473;-79
2021/06/13 02:16:46;;;;;;;0.70;0.60;;;10.90;99.90;;;11.28;100.00;30682.72;5072963;28;20464;-79
2021/06/13 02:19:23;;;;;;;0.70;0.60;;;10.90;99.90;;;11.22;100.00;29172.03;5074074;28;20887;-79
2021/06/13 02:21:58;;;;;;;0.70;0.60;;;10.80;99.90;;;11.07;100.00;27314.50;5072708;28;20448;-79
2021/06/13 02:24:41;;;;;;;0.70;0.60;;;10.70;99.90;;;11.03;100.00;24897.44;5071830;28;20462;-78
2021/06/13 02:27:12;;;;;;;0.70;0.60;;;10.70;99.90;;;11.02;100.00;23809.41;5054614;28;20929;-79
2021/06/13 02:29:46;;;;;;;0.70;0.60;;;10.60;99.90;;;10.99;100.00;22291.75;5072120;28;20521;-78
2021/06/13 02:32:16;;;;;;;0.70;0.50;;;10.60;99.90;;;11.06;100.00;20682.34;5071561;28;20468;-79
2021/06/13 02:34:47;;;;;;;0.70;0.60;;;10.60;99.90;;;11.03;100.00;19123.22;5055285;28;20449;-78
2021/06/13 02:37:18;;;;;;;0.70;0.57;;;10.60;99.90;;;10.92;100.00;17217.13;5072294;28;20446;-78
2021/06/13 02:39:47;;;;;;;0.70;0.60;;;10.50;99.90;;;10.83;100.00;15065.38;5060251;28;20460;-77
2021/06/13 02:42:33;;;;;;;0.70;0.60;;;10.50;99.90;;;10.81;100.00;12560.38;5071730;28;20463;-78
2021/06/13 02:45:10;;;;;;;0.70;0.60;;;10.40;99.90;;;10.70;100.00;10154.25;5056130;28;20445;-78
2021/06/13 02:47:45;;;;;;;0.70;0.60;;;10.40;99.90;;;10.66;100.00;7496.69;5054242;28;20465;-78
2021/06/13 02:50:14;;;;;;;0.70;0.60;;;10.30;99.90;;;10.59;100.00;4823.78;5072772;28;20468;-78
2021/06/13 02:52:47;;;;;;;0.70;0.60;;;10.20;99.90;;;10.58;100.00;2033.00;5072101;28;20429;-78
2021/06/13 02:55:24;;;;;;;0.70;0.60;;;10.20;99.90;;;10.72;100.00;-431.91;5055469;28;20543;-78
2021/06/13 02:58:01;;;;;;;0.70;0.60;;;10.20;99.90;;;10.71;100.00;-3148.19;5060075;28;20455;-79
2021/06/13 03:00:31;;;;;;;0.70;0.60;;;10.30;99.90;;;10.65;100.00;-5663.16;5057663;28;20803;-78
2021/06/13 03:03:01;;;;;;;0.77;0.60;;;10.30;99.90;;;10.53;100.00;-7566.91;5054252;28;20465;-78
2021/06/13 03:05:31;;;;;;;0.70;0.60;;;10.20;99.90;;;10.50;100.00;-8934.28;5054819;28;20462;-78
2021/06/13 03:08:01;;;;;;;0.70;0.60;;;10.10;99.90;;;10.50;100.00;-10404.25;5071319;28;21064;-78
2021/06/13 03:10:30;;;;;;;0.70;0.60;;;10.10;99.90;;;10.43;100.00;-12055.94;5055528;28;20441;-78
2021/06/13 03:13:03;;;;;;;0.70;0.60;;;10.00;99.90;;;10.40;100.00;-13810.00;5071022;28;20447;-78
2021/06/13 03:15:33;;;;;;;0.70;0.50;;;10.00;99.90;;;10.38;100.00;-15660.78;5062901;28;20444;-78
2021/06/13 03:18:04;;;;;;;0.70;0.60;;;10.00;99.90;;;10.33;100.00;-16918.41;5040271;28;20510;-78
2021/06/13 03:20:32;;;;;;;0.70;0.60;;;10.00;99.90;;;10.34;100.00;-18066.31;5070353;28;20896;-78
2021/06/13 03:23:02;;;;;;;0.70;0.60;;;9.90;99.90;;;10.32;100.00;-19363.47;5070513;28;20503;-78
2021/06/13 03:25:32;;;;;;;0.70;0.60;;;9.90;99.90;;;10.25;100.00;-20308.19;5071940;28;20531;-78
2021/06/13 03:28:01;;;;;;;0.70;0.53;;;9.90;99.90;;;10.27;100.00;-20866.97;5088086;28;20832;-78
2021/06/13 03:30:30;;;;;;;0.70;0.60;;;9.80;99.90;;;10.26;100.00;-20961.19;5072304;28;20433;-78
2021/06/13 03:33:04;;;;;;;0.70;0.50;;;9.80;99.90;;;10.23;100.00;-20960.34;5070449;28;20469;-78
2021/06/13 03:35:35;;;;;;;0.70;0.60;;;9.80;99.90;;;10.18;100.00;-20958.97;5035576;28;20440;-79
2021/06/13 03:38:03;;;;;;;0.70;0.60;;;9.80;99.90;;;10.16;100.00;-20958.53;5051823;28;20447;-78
2021/06/13 03:40:32;;;;;;;0.70;0.60;;;9.80;99.90;;;10.15;100.00;-20958.41;5051785;28;20430;-78
2021/06/13 03:43:03;;;;;;;0.70;0.60;;;9.70;99.90;;;10.15;100.00;-20958.28;5051764;28;21007;-78
2021/06/13 03:45:31;;;;;;;0.70;0.50;;;9.70;99.90;;;10.13;100.00;-20957.84;5057044;28;20957;-77
2021/06/13 03:48:00;;;;;;;0.70;0.60;;;9.80;99.90;;;10.18;100.00;-20959.09;5051148;28;20454;-78
2021/06/13 03:50:30;;;;;;;0.70;0.60;;;9.80;99.90;;;10.19;100.00;-20959.25;5061971;28;20426;-78
2021/06/13 03:52:59;;;;;;;0.70;0.60;;;9.80;99.90;;;10.25;100.00;-20960.91;5072897;28;20502;-79
2021/06/13 03:55:27;;;;;;;0.70;0.60;;;9.80;99.90;;;10.23;100.00;-20960.47;5071311;28;20454;-78
2021/06/13 03:57:57;;;;;;;0.70;0.60;;;9.80;99.90;;;10.20;100.00;-20959.66;5054119;28;20471;-78
2021/06/13 04:00:30;;;;;;;0.70;0.60;;;9.80;99.90;;;10.19;100.00;-20959.25;5066024;28;21031;-79
2021/06/13 04:02:59;;;;;;;0.70;0.60;;;9.80;99.90;;;10.23;100.00;-20960.34;5065506;28;20550;-78
2021/06/13 04:05:34;;;;;;;0.70;0.57;;;9.80;99.90;;;10.22;100.00;-20960.06;5071561;28;20437;-79
2021/06/13 04:08:01;;;;;;;0.70;0.60;;;9.80;99.90;;;10.21;100.00;-20959.94;5054832;28;20866;-78
2021/06/13 04:10:30;;;;;;;0.70;0.60;;;9.80;99.90;;;10.26;100.00;-20961.19;5072719;28;20436;-78
2021/06/13 04:12:58;;;;;;;0.70;0.60;;;9.80;99.90;;;10.27;100.00;-20961.47;5054797;28;20840;-78
2021/06/13 04:15:27;;;;;;;0.70;0.60;;;9.80;99.90;;;10.34;100.00;-20963.41;5055600;28;20448;-78
2021/06/13 04:17:56;;;;;;;0.70;0.50;;;9.90;99.90;;;10.37;100.00;-20964.22;5061535;28;20828;-78
2021/06/13 04:20:24;;;;;;;0.70;0.60;;;9.90;99.90;;;10.37;100.00;-20964.22;5075078;28;20795;-78
2021/06/13 04:22:54;;;;;;;0.70;0.60;;;9.90;99.90;;;10.43;100.00;-20965.75;5061083;28;20479;-78
2021/06/13 04:25:23;;;;;;;0.70;0.60;;;10.00;99.90;;;10.38;100.00;-20964.66;5056302;28;20529;-78
2021/06/13 04:27:53;;;;;;;0.70;0.50;;;10.00;99.90;;;10.45;100.00;-20966.44;5054738;28;20428;-78
2021/06/13 04:30:23;;;;;;;0.70;0.60;;;10.00;99.90;;;10.50;100.00;-20967.81;5054030;28;20480;-79
2021/06/13 04:32:51;;;;;;;0.70;0.60;;;10.00;99.90;;;10.59;100.00;-20970.31;5054693;28;20433;-78
2021/06/13 04:35:19;;;;;;;0.70;0.60;;;10.10;99.90;;;10.66;100.00;-20971.97;5059786;28;20520;-78
2021/06/13 04:37:47;;;;;;;0.70;0.60;;;10.10;99.90;;;10.71;100.00;-20973.34;5075013;28;20469;-78
2021/06/13 04:40:16;;;;;;;0.70;0.60;;;10.20;99.90;;;10.76;100.00;-20974.75;5074350;28;20464;-78
2021/06/13 04:42:44;;;;;;;0.70;0.60;;;10.20;99.90;;;10.84;100.00;-20976.94;5075062;28;20533;-78
2021/06/13 04:45:13;;;;;;;0.70;0.60;;;10.30;99.90;;;10.90;100.00;-20978.63;5076136;28;20979;-79
2021/06/13 04:47:41;;;;;;;0.70;0.60;;;10.40;99.90;;;11.00;100.00;-20981.38;5074339;28;20426;-77
2021/06/13 04:50:12;;;;;;;0.70;0.60;;;10.40;99.90;;;11.01;100.00;-20981.50;5061307;28;20451;-79
2021/06/13 04:52:42;;;;;;;0.70;0.60;;;10.50;99.90;;;11.07;100.00;-20983.31;5055073;28;20912;-80
2021/06/13 04:55:35;;;;;;;0.70;0.60;;;10.50;99.90;;;11.15;100.00;-20985.38;5053930;28;20436;-79
2021/06/13 04:58:22;;;;;;;0.70;0.50;;;10.60;99.90;;;11.24;100.00;-20987.75;5077521;28;20451;-78
2021/06/13 05:00:50;;;;;;;0.70;0.50;;;10.70;99.90;;;11.32;100.00;-20989.94;5055065;28;20780;-79
2021/06/13 05:03:19;;;;;;;0.70;0.60;;;10.70;99.90;;;11.46;100.00;-20993.81;5061119;28;20463;-79
2021/06/13 05:05:46;;;;;;;0.70;0.60;;;10.80;99.90;;;11.55;100.00;-20996.16;5074071;28;20812;-78
2021/06/13 05:08:14;;;;;;;0.70;0.60;;;10.90;99.90;;;11.62;100.00;-20998.09;5073162;28;20818;-78
2021/06/13 05:10:43;;;;;;;0.70;0.60;;;11.00;99.90;;;11.72;100.00;-21000.88;5065304;28;20875;-77
2021/06/13 05:13:15;;;;;;;0.70;0.60;;;11.10;99.90;;;11.76;100.00;-21001.97;5053844;28;20531;-79
2021/06/13 05:15:43;;;;;;;0.73;0.70;;;11.10;99.90;;;11.91;100.00;-21005.84;5037437;28;20455;-80
2021/06/13 05:18:11;;;;;;;0.70;0.57;;;11.20;99.90;;;12.03;100.00;-21009.28;5053631;28;20462;-80
2021/06/13 05:20:41;;;;;;;0.70;0.60;;;11.30;99.90;;;12.13;100.00;-21011.78;5054225;28;20466;-78
2021/06/13 05:23:10;;;;;;;0.70;0.60;;;11.40;99.90;;;12.20;100.00;-21013.84;5054028;28;20490;-78
2021/06/13 05:25:39;;;;;;;0.70;0.60;;;11.50;99.90;;;12.34;100.00;-21017.56;5066203;28;20497;-79
2021/06/13 05:28:08;;;;;;;0.70;0.60;;;11.60;99.90;;;12.40;100.00;-21019.22;5072480;28;20435;-79
2021/06/13 05:30:37;;;;;;;0.70;0.60;;;11.70;99.90;;;12.63;100.00;-21025.44;5073468;28;20476;-79
2021/06/13 05:33:08;;;;;;;0.70;0.60;;;11.80;99.90;;;12.71;100.00;-21027.50;5073434;28;20439;-79
2021/06/13 05:35:38;;;;;;;0.70;0.70;;;11.90;99.90;;;12.77;100.00;-21029.16;5055781;28;20447;-78
2021/06/13 05:38:07;;;;;;;0.70;0.70;;;12.00;99.90;;;12.92;100.00;-21033.31;5053420;28;20510;-80
2021/06/13 05:40:36;;;;;;;0.70;0.60;;;12.10;99.90;;;13.01;100.00;-21035.78;5053564;28;20429;-79
2021/06/13 05:43:05;;;;;;;0.70;0.60;;;12.20;99.90;;;13.09;100.00;-21037.72;5052924;28;20862;-80
2021/06/13 05:45:37;;;;;;;0.70;0.60;;;12.30;99.90;;;13.25;100.00;-21042.13;5061855;28;20531;-80
2021/06/13 05:48:06;;;;;;;0.70;0.60;;;12.50;99.90;;;13.32;100.00;-21043.94;5053056;28;20420;-79
2021/06/13 05:50:35;;;;;;;0.70;0.60;;;12.60;99.90;;;13.48;100.00;-21048.47;5037649;28;20447;-79
2021/06/13 05:53:05;;;;;;;0.70;0.50;;;12.70;99.90;;;13.59;100.00;-21051.22;5071044;28;20451;-79
2021/06/13 05:55:36;;;;;;;0.70;0.60;;;12.80;99.90;;;13.67;100.00;-21053.44;5047698;28;20415;-79
2021/06/13 05:58:04;;;;;;;0.73;0.70;;;12.90;99.90;;;13.77;100.00;-21056.34;5065974;28;20893;-78
2021/06/13 06:00:37;;;;;;;0.70;0.60;;;13.00;99.90;;;13.88;100.00;-21059.22;5060554;28;20444;-80
2021/06/13 06:03:09;;;;;;;0.70;0.57;;;13.20;99.90;;;13.99;100.00;-21062.25;5071816;28;20428;-78
2021/06/13 06:05:36;;;;;;;0.70;0.60;;;13.30;99.90;;;14.07;100.00;-21064.31;5057626;28;20445;-77
2021/06/13 06:08:05;;;;;;;0.70;0.60;;;13.40;99.90;;;14.16;100.00;-21066.78;5073171;28;20458;-79
2021/06/13 06:10:37;;;;;;;0.80;0.70;;;13.50;99.90;;;14.38;100.00;-21072.72;5052519;28;20432;-79
2021/06/13 06:13:05;;;;;;;0.70;0.63;;;13.70;99.90;;;14.54;100.00;-21076.84;5052981;28;20443;-79
2021/06/13 06:15:37;;;;;;;2.60;1.40;;;13.90;99.90;;;14.57;100.00;-21077.81;5039494;28;20517;-78
2021/06/13 06:18:05;;;;;;;0.70;0.70;;;14.00;99.90;;;14.61;100.00;-21078.78;5065800;28;20426;-78
2021/06/13 06:20:34;;;;;;;0.77;0.70;;;14.10;99.90;;;14.78;100.00;-21083.47;5052841;28;20412;-76
2021/06/13 06:23:02;;;;;;;0.80;0.70;;;14.30;99.90;;;14.88;100.00;-21086.06;5058523;28;21057;-79
2021/06/13 06:25:31;;;;;;;0.70;0.70;;;14.40;99.90;;;14.98;100.00;-21088.97;5054034;28;20418;-78
2021/06/13 06:28:00;;;;;;;0.80;0.77;;;14.40;99.90;;;15.13;100.00;-21092.94;5053697;28;20424;-80
2021/06/13 06:30:29;;;;;;;0.70;0.60;;;14.60;99.90;;;15.39;100.00;-21099.97;5060145;28;20468;-78
2021/06/13 06:32:58;;;;;;;0.80;0.70;;;14.70;99.90;;;15.45;100.00;-21101.63;5089314;28;20411;-77
2021/06/13 06:35:27;;;;;;;0.80;0.70;;;14.90;99.90;;;15.77;100.00;-21110.13;5071553;28;20464;-77
2021/06/13 06:37:55;;;;;;;0.70;0.60;;;15.00;99.90;;;16.01;100.00;-21116.59;5044362;28;20463;-78
2021/06/13 06:40:23;;;;;;;0.70;0.60;;;15.20;99.90;;;15.80;100.00;-21110.97;5058276;28;20748;-78
2021/06/13 06:43:12;;;;;;;0.70;0.67;;;15.30;99.90;;;16.24;100.00;-21122.63;5071753;28;20944;-80
2021/06/13 06:45:40;;;;;;;0.70;0.70;;;15.50;99.90;;;16.15;100.00;-21120.44;5056062;28;20446;-79
2021/06/13 06:48:10;;;;;;;0.77;0.70;;;15.60;99.90;;;16.12;100.00;-21119.47;5065372;28;20850;-76
2021/06/13 06:50:38;;;;;;;0.70;0.60;;;15.70;99.90;;;16.33;100.00;-21125.25;5061929;28;20439;-77
2021/06/13 06:53:05;;;;;;;0.80;0.70;;;15.80;99.90;;;16.61;100.00;-21132.66;5063297;28;21022;-79
2021/06/13 06:55:33;;;;;;;0.70;0.60;;;16.00;99.90;;;16.55;100.00;-21131.03;5067490;28;20415;-79
2021/06/13 06:58:02;;;;;;;0.80;0.70;;;16.10;99.90;;;16.80;100.00;-21137.88;5053574;28;20447;-79
2021/06/13 07:00:31;;;;;;;0.80;0.70;;;16.20;99.90;;;16.78;100.00;-21137.34;5069695;28;20469;-79
2021/06/13 07:03:00;;;;;;;0.80;0.70;;;16.30;99.90;;;16.94;100.00;-21141.44;5066727;28;20448;-77
2021/06/13 07:05:29;;;;;;;0.70;0.60;;;16.40;99.90;;;17.25;100.00;-21149.97;5060012;28;20838;-77
2021/06/13 07:07:56;;;;;;;0.80;0.70;;;16.50;99.90;;;17.18;100.00;-21148.03;5066454;28;20464;-77
2021/06/13 07:10:24;;;;;;;0.70;0.60;;;16.70;99.90;;;17.34;100.00;-21152.44;5053292;28;20442;-79
2021/06/13 07:12:52;;;;;;;0.80;0.80;;;16.80;99.90;;;17.41;100.00;-21154.22;5056734;28;20984;-77
2021/06/13 07:15:19;;;;;;;0.80;0.80;;;16.90;99.90;;;17.57;100.00;-21158.59;5071394;28;20942;-76
2021/06/13 07:17:48;;;;;;;0.70;0.60;;;17.00;99.90;;;17.71;100.00;-21162.28;5066545;28;20449;-77
2021/06/13 07:20:17;;;;;;;0.70;0.63;;;17.00;99.90;;;17.81;100.00;-21164.91;5050046;28;20465;-76
2021/06/13 07:22:46;;;;;;;0.70;0.60;;;17.10;99.90;;;17.72;100.00;-21162.56;5069864;28;20520;-79
2021/06/13 07:25:13;;;;;;;0.77;0.70;;;17.20;99.90;;;17.72;100.00;-21162.56;5053943;28;20584;-78
2021/06/13 07:27:42;;;;;;;0.70;0.63;;;17.30;99.90;;;17.92;100.00;-21167.78;5053130;28;20466;-76
2021/06/13 07:30:14;;;;;;;0.80;0.70;;;17.30;99.90;;;17.83;100.00;-21165.59;5061760;28;20444;-78
2021/06/13 07:32:43;;;;;;;0.80;0.73;;;17.30;99.90;;;18.08;100.00;-21172.16;5070305;28;20921;-79
2021/06/13 07:35:12;;;;;;;0.80;0.70;;;17.40;99.90;;;18.16;100.00;-21174.22;5070080;28;20414;-76
2021/06/13 07:37:40;;;;;;;0.80;0.70;;;17.50;99.90;;;18.25;100.00;-21176.69;5053260;28;20432;-77
2021/06/13 07:40:13;;;;;;;0.70;0.60;;;17.70;99.90;;;18.44;100.00;-21181.88;5049727;28;20970;-78
2021/06/13 07:42:41;;;;;;;0.77;0.70;;;17.80;99.90;;;18.66;100.00;-21187.78;5071577;28;20433;-77
2021/06/13 07:45:12;;;;;;;0.70;0.60;;;18.00;99.90;;;18.46;100.00;-21182.31;5069487;28;20465;-79
2021/06/13 07:47:41;;;;;;;0.80;0.70;;;18.00;99.90;;;18.75;100.00;-21190.25;5070955;28;20493;-78
2021/06/13 07:50:13;;;;;;;0.70;0.60;;;18.20;99.90;;;19.15;100.00;-21200.78;5075436;28;20764;-75
2021/06/13 07:52:40;;;;;;;0.80;0.70;;;18.30;99.90;;;19.06;100.00;-21198.44;5058275;28;20488;-79
2021/06/13 07:55:15;;;;;;;0.80;0.80;;;18.40;99.90;;;18.92;100.00;-21194.63;5060480;28;20879;-80
2021/06/13 07:57:43;;;;;;;0.80;0.70;;;18.50;99.90;;;18.95;100.00;-21195.59;5056888;28;20420;-80
2021/06/13 08:00:14;;;;;;;0.80;0.70;;;18.50;99.90;;;19.26;100.00;-21203.94;5065838;28;20423;-80
2021/06/13 08:02:47;;;;;;;0.70;0.60;;;18.70;99.90;;;19.42;100.00;-21208.16;5075272;28;20963;-83
2021/06/13 08:05:24;;;;;;;0.70;0.60;;;18.80;99.90;;;19.47;100.00;-21209.53;5075799;28;20795;-80
2021/06/13 08:07:53;;;;;;;0.70;0.60;;;18.90;99.90;;;19.43;100.00;-21208.44;5073206;28;20468;-82
2021/06/13 08:10:23;;;;;;;0.70;0.60;;;19.10;94.70;;;19.66;100.00;-21214.59;5057625;28;20939;-80
2021/06/13 08:12:50;;;;;;;0.70;0.60;;;19.20;91.20;;;19.55;100.00;-21211.59;5075136;28;20504;-81
2021/06/13 08:15:19;;;;;;;0.80;0.70;;;19.20;88.50;;;19.67;100.00;-21214.88;5074147;28;20470;-81
2021/06/13 08:17:49;;;;;;;0.80;0.70;;;19.30;86.10;;;19.72;100.00;-21216.25;5076303;28;20407;-79
2021/06/13 08:20:18;;;;;;;0.80;0.70;;;19.40;81.20;;;20.07;100.00;-21225.38;5075000;28;20513;-81
2021/06/13 08:22:47;;;;;;;0.80;0.70;;;19.60;78.00;;;20.24;100.00;-21230.16;5075755;28;20500;-78
2021/06/13 08:25:16;;;;;;;0.80;0.70;;;19.80;75.60;;;20.38;100.00;-21233.72;5064369;28;20994;-79
2021/06/13 08:27:46;;;;;;;0.80;0.70;;;20.00;67.70;;;20.95;100.00;-21249.16;5039383;28;20444;-82
2021/06/13 08:30:16;;;;;;;0.77;0.60;;;20.30;66.90;;;20.74;100.00;-21243.41;5038609;28;20439;-81
2021/06/13 08:32:45;;;;;;;0.80;0.70;;;20.50;68.00;;;21.52;100.00;-21264.28;5056229;28;20417;-81
2021/06/13 08:35:15;;;;;;;0.80;0.60;;;20.90;61.70;;;21.83;100.00;-21272.47;5069011;28;20504;-81
2021/06/13 08:37:43;;;;;;;0.80;0.70;;;21.20;57.10;;;21.75;100.00;-21270.44;5059706;28;20420;-80
2021/06/13 08:40:13;;;;;;;0.73;0.60;;;21.50;54.10;;;22.28;100.00;-21284.47;5072905;28;20455;-80
2021/06/13 08:42:43;;;;;;;0.80;0.67;;;21.70;51.00;;;22.38;100.00;-21287.19;5067048;28;20401;-80
2021/06/13 08:45:15;;;;;;;0.80;0.70;;;22.00;46.20;;;20.63;100.00;-21240.56;5054547;28;20439;-81
2021/06/13 08:47:46;;;;;;;0.80;0.60;;;21.50;45.70;;;20.22;100.00;-21229.50;5070766;28;20493;-84
2021/06/13 08:50:14;;;;;;;0.77;0.60;;;20.80;50.30;;;21.03;100.00;-21251.19;5072683;28;20428;-84
2021/06/13 08:52:41;;;;;;;0.70;0.60;;;20.70;48.90;;;21.11;100.00;-21253.38;5068214;28;20473;-83
2021/06/13 08:55:10;;;;;;;0.80;0.70;;;20.90;48.90;;;21.77;100.00;-21270.84;5055421;28;20444;-85
2021/06/13 08:57:39;;;;;;;0.70;0.60;;;21.20;50.50;;;22.78;100.00;-21297.94;5065864;28;20451;-81
2021/06/13 09:00:11;;;;;;;0.80;0.60;;;21.90;43.60;;;22.57;100.00;-21292.38;5066449;28;20816;-80
2021/06/13 09:02:41;;;;;;;0.80;0.60;;;22.40;40.80;;;23.95;100.00;-21328.94;5061187;28;20486;-81
2021/06/13 09:05:19;;;;;;;0.70;0.57;;;23.20;38.40;;;23.69;100.00;-21322.03;5055798;28;20456;-82
2021/06/13 09:07:51;;;;;;;0.80;0.63;;;23.60;34.10;;;24.38;100.00;-21340.34;5054894;28;20510;-81
2021/06/13 09:10:23;;;;;;;0.70;0.60;;;24.00;34.90;;;25.35;100.00;-21366.28;5063605;28;20492;-79
2021/06/13 09:13:06;;;;;;;0.80;0.60;;;25.10;26.50;;;26.11;100.00;-21386.47;5074077;28;20530;-79
2021/06/13 09:15:42;;;;;;;0.70;0.60;;;25.90;22.80;;;25.73;100.00;-21376.31;5075100;28;20407;-81
2021/06/13 09:18:28;;;;;;;0.70;0.50;;;26.50;19.30;;;26.73;100.00;-21402.84;5072449;28;20427;-79
2021/06/13 09:20:57;;;;;;;0.70;0.50;;;27.20;14.20;;;26.80;100.00;-21404.72;5074806;28;20443;-81
2021/06/13 09:23:27;;;;;;;0.70;0.50;;;27.50;13.00;;;27.11;100.00;-21412.84;5075956;28;20447;-81
2021/06/13 09:26:02;;;;;;;0.70;0.50;;;27.70;9.50;;;27.47;100.00;-21422.44;5057894;28;21006;-81
2021/06/13 09:28:32;;;;;;;0.70;0.50;;;27.60;9.30;;;25.81;100.00;-21378.47;5056633;28;20431;-80
2021/06/13 09:31:01;;;;;;;0.70;0.50;;;27.20;9.50;;;26.46;100.00;-21395.81;5054718;28;20960;-82
2021/06/13 09:33:33;;;;;;;0.70;0.50;;;27.30;8.40;;;26.95;100.00;-21408.78;5071826;28;20419;-80
2021/06/13 09:36:06;;;;;;;0.70;0.50;;;27.70;10.80;;;27.55;100.00;-21424.47;5078331;28;20432;-82
2021/06/13 09:38:38;;;;;;;0.70;0.50;;;28.30;5.60;;;28.76;100.00;-21456.47;5038444;28;20463;-80
2021/06/13 09:41:12;;;;;;;0.70;0.50;;;28.90;1.90;;;29.12;100.00;-21466.19;5037138;28;20936;-80
2021/06/13 09:43:42;;;;;;;0.70;0.50;;;29.20;1.00;;;28.37;100.00;-21446.34;5053353;28;20435;-82
2021/06/13 09:46:12;;;;;;;0.70;0.50;;;29.20;1.00;;;27.24;100.00;-21416.38;5053638;28;20460;-79
2021/06/13 09:48:45;;;;;;;0.70;0.50;;;29.40;1.00;;;28.46;100.00;-21448.50;5058255;28;20786;-81
2021/06/13 09:51:15;;;;;;;0.70;0.50;;;29.50;1.00;;;27.87;100.00;-21433.13;5067214;28;20778;-80
2021/06/13 09:53:44;;;;;;;0.70;0.50;;;29.50;1.00;;;28.61;100.00;-21452.56;5056288;28;21017;-83
2021/06/13 09:56:23;;;;;;;0.70;0.50;;;29.70;1.00;;;27.26;100.00;-21416.91;5072956;28;20966;-80
2021/06/13 09:59:09;;;;;;;0.80;0.67;;;29.20;1.00;;;26.47;100.00;-21396.09;5073155;28;20423;-81
2021/06/13 10:01:40;;;;;;;0.70;0.50;;;28.70;1.00;;;27.88;100.00;-21433.25;5042721;28;20780;-81
2021/06/13 10:04:26;;;;;;;0.70;0.60;;;29.00;1.00;;;29.05;100.00;-21464.16;5066146;28;20420;-80
2021/06/13 10:06:55;;;;;;;0.70;0.50;;;29.60;1.00;;;29.23;100.00;-21469.00;5059181;28;20442;-82
2021/06/13 10:09:37;;;;;;;0.70;0.50;;;29.60;1.00;;;27.22;100.00;-21415.81;5073900;28;20830;-82
2021/06/13 10:12:09;;;;;;;0.70;0.50;;;29.70;1.00;;;27.16;100.00;-21414.34;5063256;28;20450;-81
2021/06/13 10:14:38;;;;;;;0.70;0.50;;;29.60;1.00;;;28.64;100.00;-21453.38;5050204;28;20427;-82
2021/06/13 10:17:08;;;;;;;0.70;0.50;;;29.50;1.00;;;29.77;100.00;-21483.28;5062318;28;20523;-81
2021/06/13 10:19:42;;;;;;;0.70;0.50;;;29.90;1.00;;;27.75;100.00;-21429.88;5058813;28;20463;-86
2021/06/13 10:22:12;;;;;;;0.70;0.60;;;29.80;1.00;;;26.98;100.00;-21409.59;5059599;28;20760;-82
2021/06/13 10:24:43;;;;;;;0.70;0.50;;;30.00;1.00;;;28.25;100.00;-21442.97;5053041;28;20464;-83
2021/06/13 10:27:13;;;;;;;0.70;0.50;;;30.00;1.00;;;29.43;100.00;-21474.25;5063728;28;20441;-85